createdAt,value
2019-02-05T00:03:53.963Z,25.40
2019-02-05T00:08:58.337Z,25.05
2019-02-05T00:14:00.065Z,24.50
2019-02-05T00:19:01.901Z,26.30
2019-02-05T00:24:04.149Z,26.02
2019-02-05T00:29:05.908Z,29.90
2019-02-05T00:34:09.626Z,26.10
2019-02-05T00:39:11.291Z,26.60
2019-02-05T00:44:12.623Z,28.02
2019-02-05T00:49:13.964Z,29.42
2019-02-05T00:54:15.867Z,29.87
2019-02-05T00:59:17.739Z,28.83
2019-02-05T01:04:19.133Z,29.90
2019-02-05T01:09:20.620Z,28.70
2019-02-05T01:14:22.512Z,30.00
2019-02-05T01:19:24.119Z,28.75
2019-02-05T01:24:25.455Z,29.85
2019-02-05T01:29:27.652Z,30.62
2019-02-05T01:34:29.060Z,30.75
2019-02-05T01:39:30.827Z,29.25
2019-02-05T01:44:32.125Z,30.72
2019-02-05T01:49:36.816Z,32.15
2019-02-05T01:54:38.227Z,30.00
2019-02-05T01:59:40.698Z,30.88
2019-02-05T02:04:42.038Z,30.43
2019-02-05T02:09:43.527Z,32.20
2019-02-05T02:14:45.652Z,32.83
2019-02-05T02:19:47.405Z,30.65
2019-02-05T02:24:48.717Z,33.58
2019-02-05T02:29:50.052Z,32.53
2019-02-05T02:34:51.371Z,32.60
2019-02-05T02:39:55.258Z,31.85
2019-02-05T02:44:58.590Z,32.67
2019-02-05T02:49:59.983Z,32.78
2019-02-05T02:55:01.370Z,33.23
2019-02-05T03:00:08.056Z,33.25
2019-02-05T03:05:12.788Z,31.73
2019-02-05T03:10:23.783Z,34.23
2019-02-05T03:15:25.292Z,33.28
2019-02-05T03:20:26.574Z,34.43
2019-02-05T03:25:29.706Z,34.45
2019-02-05T03:30:31.203Z,35.58
2019-02-05T03:35:32.712Z,36.10
2019-02-05T03:40:57.846Z,33.98
2019-02-05T03:45:59.475Z,34.43
2019-02-05T03:56:21.693Z,35.78
2019-02-05T04:01:51.862Z,35.13
2019-02-05T04:07:32.545Z,35.63
2019-02-05T04:13:22.697Z,37.53
2019-02-05T04:18:51.035Z,35.20
2019-02-05T04:24:07.271Z,34.40
2019-02-05T04:29:37.440Z,36.58
2019-02-05T04:35:12.150Z,35.05
2019-02-05T04:40:31.933Z,36.73
2019-02-05T04:45:56.699Z,37.85
2019-02-05T04:51:18.422Z,35.20
2019-02-05T04:56:40.782Z,36.65
2019-02-05T05:01:47.899Z,37.73
2019-02-05T05:07:35.584Z,39.25
2019-02-05T05:12:39.514Z,36.65
2019-02-05T05:17:42.758Z,38.25
2019-02-05T05:22:44.398Z,38.13
2019-02-05T05:27:45.665Z,37.45
2019-02-05T05:33:05.596Z,37.40
2019-02-05T05:38:07.010Z,37.65
2019-02-05T05:43:08.488Z,38.63
2019-02-05T05:48:10.056Z,39.95
2019-02-05T05:53:11.388Z,37.80
2019-02-05T05:58:22.281Z,39.67
2019-02-05T06:03:22.881Z,38.80
2019-02-05T06:08:24.201Z,40.15
2019-02-05T06:13:25.603Z,42.23
2019-02-05T06:18:27.521Z,42.38
2019-02-05T06:23:28.948Z,39.88
2019-02-05T06:28:34.654Z,45.10
2019-02-05T06:33:33.596Z,45.67
2019-02-05T06:38:35.744Z,44.15
2019-02-05T06:43:37.118Z,45.58
2019-02-05T06:48:38.514Z,46.83
2019-02-05T06:53:39.906Z,44.70
2019-02-05T06:58:46.632Z,47.23
2019-02-05T07:03:44.440Z,49.75
2019-02-05T07:08:45.910Z,45.80
2019-02-05T07:13:47.428Z,46.70
2019-02-05T07:18:49.252Z,49.13
2019-02-05T07:23:51.521Z,47.78
2019-02-05T07:29:00.011Z,46.92
2019-02-05T07:33:56.674Z,46.77
2019-02-05T07:38:58.986Z,47.78
2019-02-05T07:44:02.036Z,49.30
2019-02-05T07:49:03.512Z,47.08
2019-02-05T07:54:23.433Z,48.52
2019-02-05T07:59:25.242Z,45.95
2019-02-05T08:04:26.584Z,48.70
2019-02-05T08:09:28.013Z,47.67
2019-02-05T08:14:31.240Z,47.58
2019-02-05T08:19:36.085Z,49.63
2019-02-05T08:24:37.469Z,49.98
2019-02-05T08:29:39.279Z,49.85
2019-02-05T08:34:43.970Z,48.80
2019-02-05T08:39:48.187Z,47.00
2019-02-05T08:44:49.573Z,45.73
2019-02-05T08:49:50.982Z,48.08
2019-02-05T08:54:52.718Z,50.30
2019-02-05T08:59:55.918Z,48.30
2019-02-05T09:04:57.977Z,47.90
2019-02-05T09:10:03.328Z,46.42
2019-02-05T09:15:29.516Z,47.20
2019-02-05T09:20:29.098Z,48.78
2019-02-05T09:25:34.477Z,48.58
2019-02-05T09:30:35.965Z,45.78
2019-02-05T09:35:38.361Z,49.33
2019-02-05T09:40:39.898Z,46.18
2019-02-05T09:45:41.304Z,47.38
2019-02-05T09:50:45.002Z,44.88
2019-02-05T09:55:47.562Z,45.65
2019-02-05T10:00:51.926Z,47.65
2019-02-05T10:05:53.355Z,46.15
2019-02-05T10:10:57.798Z,45.23
2019-02-05T10:16:00.294Z,44.35
2019-02-05T10:21:03.102Z,45.17
2019-02-05T10:26:06.277Z,47.83
2019-02-05T10:31:07.856Z,45.08
2019-02-05T10:36:10.280Z,42.58
2019-02-05T10:41:11.926Z,44.85
2019-02-05T10:46:15.561Z,45.10
2019-02-05T10:51:20.473Z,44.42
2019-02-05T10:56:24.142Z,43.52
2019-02-05T11:01:26.103Z,46.30
2019-02-05T11:06:27.648Z,45.83
2019-02-05T11:11:29.479Z,45.83
2019-02-05T11:16:30.958Z,50.65
2019-02-05T11:21:32.428Z,52.95
2019-02-05T11:26:36.886Z,52.20
2019-02-05T11:31:39.162Z,49.08
2019-02-05T11:36:40.672Z,51.63
2019-02-05T11:41:42.174Z,52.58
2019-02-05T11:46:46.785Z,55.03
2019-02-05T11:51:52.118Z,54.70
2019-02-05T11:56:54.495Z,52.50
2019-02-05T12:01:59.049Z,53.98
2019-02-05T12:07:00.934Z,51.30
2019-02-05T12:12:02.552Z,50.60
2019-02-05T12:17:06.722Z,50.38
2019-02-05T12:22:08.733Z,46.75
2019-02-05T12:27:10.268Z,46.45
2019-02-05T12:32:12.043Z,45.35
2019-02-05T12:37:13.364Z,42.93
2019-02-05T12:42:14.719Z,43.42
2019-02-05T12:47:16.501Z,42.62
2019-02-05T12:52:18.054Z,43.98
2019-02-05T12:57:25.126Z,46.48
2019-02-05T13:02:30.523Z,44.38
2019-02-05T13:07:33.676Z,47.20
2019-02-05T13:12:35.050Z,44.55
2019-02-05T13:17:39.987Z,46.35
2019-02-05T13:22:42.048Z,43.70
2019-02-05T13:27:43.552Z,39.95
2019-02-05T13:32:45.317Z,39.53
2019-02-05T13:37:47.546Z,34.27
2019-02-05T13:42:49.030Z,35.40
2019-02-05T13:47:50.430Z,33.33
2019-02-05T13:52:52.058Z,34.90
2019-02-05T13:57:53.461Z,37.17
2019-02-05T14:02:54.929Z,38.42
2019-02-05T14:07:56.999Z,38.20
2019-02-05T14:12:58.792Z,35.95
2019-02-05T14:18:00.778Z,33.88
2019-02-05T14:23:02.078Z,34.78
2019-02-05T14:28:04.072Z,36.77
2019-02-05T14:33:06.026Z,36.05
2019-02-05T14:38:09.172Z,35.55
2019-02-05T14:43:14.665Z,35.15
2019-02-05T14:48:17.617Z,35.00
2019-02-05T14:53:19.285Z,34.48
2019-02-05T14:58:20.940Z,34.63
2019-02-05T15:03:22.341Z,33.42
2019-02-05T15:08:27.500Z,32.33
2019-02-05T15:13:29.861Z,31.82
2019-02-05T15:18:31.179Z,31.02
2019-02-05T15:23:32.684Z,31.00
2019-02-05T15:28:34.050Z,32.08
2019-02-05T15:33:40.136Z,29.27
2019-02-05T15:38:42.052Z,29.10
2019-02-05T15:43:43.537Z,28.98
2019-02-05T15:48:46.759Z,30.08
2019-02-05T15:53:50.152Z,30.65
2019-02-05T15:58:51.502Z,29.15
2019-02-05T16:03:52.843Z,30.40
2019-02-05T16:08:54.288Z,29.75
2019-02-05T16:13:57.440Z,30.37
2019-02-05T16:18:59.754Z,29.60
2019-02-05T16:24:01.610Z,30.70
2019-02-05T16:29:05.573Z,30.32
2019-02-05T16:34:07.472Z,32.50
2019-02-05T16:39:11.275Z,33.02
2019-02-05T16:44:12.662Z,30.23
2019-02-05T16:49:14.118Z,30.15
2019-02-05T16:54:16.123Z,29.27
2019-02-05T16:59:18.089Z,28.30
2019-02-05T17:04:19.512Z,26.35
2019-02-05T17:09:21.201Z,26.73
2019-02-05T17:14:22.786Z,25.97
2019-02-05T17:19:24.098Z,24.90
2019-02-05T17:24:25.463Z,25.05
2019-02-05T17:29:26.794Z,26.23
2019-02-05T17:34:31.529Z,25.72
2019-02-05T17:39:32.948Z,25.48
2019-02-05T17:44:35.214Z,27.45
2019-02-05T17:49:36.568Z,28.00
2019-02-05T17:54:38.355Z,26.97
2019-02-05T17:59:40.722Z,27.42
2019-02-05T18:04:42.441Z,29.07
2019-02-05T18:09:43.889Z,28.32
2019-02-05T18:14:45.240Z,27.50
2019-02-05T18:19:46.984Z,29.15
2019-02-05T18:24:48.357Z,28.42
2019-02-05T18:29:50.108Z,30.57
2019-02-05T18:34:51.749Z,30.92
2019-02-05T18:39:53.724Z,29.50
2019-02-05T18:44:55.600Z,32.23
2019-02-05T18:49:56.911Z,31.73
2019-02-05T18:55:00.360Z,32.58
2019-02-05T19:00:12.426Z,30.80
2019-02-05T19:05:13.958Z,31.57
2019-02-05T19:10:24.975Z,34.55
2019-02-05T19:15:30.275Z,30.40
2019-02-05T19:20:31.832Z,33.02
2019-02-05T19:25:35.102Z,35.23
2019-02-05T19:30:40.673Z,35.05
2019-02-05T19:35:44.690Z,40.92
2019-02-05T19:40:56.796Z,40.23
2019-02-05T19:46:03.873Z,37.98
2019-02-05T19:51:05.346Z,41.42
2019-02-05T19:56:06.765Z,37.48
2019-02-05T20:01:09.550Z,38.88
2019-02-05T20:06:10.937Z,42.33
2019-02-05T20:11:12.628Z,40.38
2019-02-05T20:16:14.362Z,38.90
2019-02-05T20:21:17.661Z,40.48
2019-02-05T20:26:19.125Z,39.73
2019-02-05T20:31:20.719Z,39.10
2019-02-05T20:36:28.987Z,38.02
2019-02-05T20:41:30.422Z,38.10
2019-02-05T20:46:31.875Z,38.75
2019-02-05T20:51:33.228Z,40.78
2019-02-05T20:56:34.891Z,39.55
2019-02-05T21:01:36.294Z,43.35
2019-02-05T21:06:37.849Z,39.90
2019-02-05T21:11:39.886Z,39.20
2019-02-05T21:16:41.368Z,41.35
2019-02-05T21:21:43.311Z,39.73
2019-02-05T21:26:46.663Z,39.70
2019-02-05T21:31:48.102Z,41.08
2019-02-05T21:36:49.654Z,54.75
2019-02-05T21:41:51.402Z,60.70
2019-02-05T21:46:54.139Z,44.77
2019-02-05T21:51:57.101Z,63.87
2019-02-05T21:56:58.423Z,51.53
2019-02-05T22:01:59.865Z,42.20
2019-02-05T22:07:01.549Z,51.28
2019-02-05T22:12:03.171Z,48.15
2019-02-05T22:17:04.698Z,56.33
2019-02-05T22:22:06.185Z,68.40
2019-02-05T22:27:07.583Z,65.35
2019-02-05T22:32:09.075Z,73.20
2019-02-05T22:37:10.417Z,34.88
2019-02-05T22:42:12.405Z,33.53
2019-02-05T22:47:14.246Z,28.67
2019-02-05T22:52:15.711Z,24.18
2019-02-05T22:57:17.154Z,22.42
2019-02-05T23:02:18.605Z,38.98
2019-02-05T23:07:20.069Z,23.52
2019-02-05T23:12:32.809Z,22.05
2019-02-05T23:17:34.156Z,27.65
2019-02-05T23:22:35.452Z,17.52
2019-02-05T23:27:37.162Z,19.20
2019-02-05T23:32:38.497Z,16.55
2019-02-05T23:37:39.815Z,15.25
2019-02-05T23:42:41.414Z,15.70
2019-02-05T23:47:44.776Z,13.30
2019-02-05T23:52:46.073Z,13.35
2019-02-05T23:57:48.940Z,12.85
